Time;durP1;ratioP1;P1;durP2;ratioP2;P2;SDS_P1;SDS_P2;PMS_P1;PMS_P2;Temp;Humidity;BMP_temperature;BMP_pressure;BME280_temperature;BME280_humidity;BME280_pressure;Samples;Min_cycle;Max_cycle;Signal;HPM_P1;HPM_P2
2021/12/27 09:06:09;;;;;;;18.60;8.15;;;4.50;95.50;;;;;;10461390;28;20408;-77
2021/12/27 09:11:09;;;;;;;20.08;7.80;;;5.10;95.50;;;;;;10444469;28;20037;-74
2021/12/27 09:16:13;;;;;;;20.55;7.50;;;4.70;95.80;;;;;;10431291;28;20041;-74
2021/12/27 09:21:13;;;;;;;19.27;7.50;;;4.90;95.70;;;;;;10434894;28;20132;-76
2021/12/27 09:26:14;;;;;;;16.90;7.22;;;4.90;95.60;;;;;;10423814;28;20033;-74
2021/12/27 09:31:15;;;;;;;22.55;8.35;;;4.90;95.80;;;;;;10418715;28;20033;-72
2021/12/27 09:36:15;;;;;;;19.15;7.50;;;4.90;95.70;;;;;;10446286;28;20048;-76
2021/12/27 09:41:16;;;;;;;15.98;7.05;;;4.90;95.80;;;;;;10439647;28;20177;-73
2021/12/27 09:46:18;;;;;;;21.55;7.78;;;4.90;95.80;;;;;;10442710;28;20442;-73
2021/12/27 09:51:20;;;;;;;22.00;8.07;;;4.90;95.90;;;;;;10450441;28;20041;-73
2021/12/27 09:56:21;;;;;;;17.17;7.43;;;4.90;95.90;;;;;;10436911;28;20033;-71
2021/12/27 10:01:22;;;;;;;21.73;8.10;;;5.00;96.00;;;;;;10431963;28;20442;-70
2021/12/27 10:06:25;;;;;;;21.50;7.63;;;4.90;96.00;;;;;;10450255;28;20408;-73
2021/12/27 10:11:31;;;;;;;22.58;8.25;;;5.10;96.00;;;;;;10443527;28;20623;-75
2021/12/27 10:16:54;;;;;;;21.63;7.85;;;4.90;96.10;;;;;;10434857;28;20045;-74
2021/12/27 10:21:55;;;;;;;18.80;6.93;;;5.00;96.10;;;;;;10440154;28;20510;-71
2021/12/27 10:26:58;;;;;;;21.02;7.75;;;5.10;96.10;;;;;;10423650;28;20126;-71
2021/12/27 10:32:08;;;;;;;20.95;7.55;;;5.10;96.00;;;;;;10426821;28;20481;-71
2021/12/27 10:37:09;;;;;;;19.10;7.88;;;5.10;96.00;;;;;;10446863;28;20058;-71
2021/12/27 10:42:13;;;;;;;21.38;8.13;;;5.10;96.00;;;;;;10445549;28;20029;-71
2021/12/27 10:47:39;;;;;;;21.33;7.43;;;5.10;96.00;;;;;;10447886;28;20075;-75
2021/12/27 10:52:59;;;;;;;21.63;7.50;;;5.10;96.10;;;;;;10448064;28;20040;-75
2021/12/27 10:58:23;;;;;;;23.80;8.38;;;5.20;96.30;;;;;;10438464;28;20040;-74
2021/12/27 11:03:35;;;;;;;24.83;7.97;;;5.10;96.30;;;;;;10447079;28;20120;-76
2021/12/27 11:08:39;;;;;;;22.80;7.93;;;5.20;96.30;;;;;;10434808;28;20699;-74
2021/12/27 11:13:40;;;;;;;21.48;7.80;;;5.10;96.30;;;;;;10433669;28;20247;-76
2021/12/27 11:18:41;;;;;;;19.90;7.53;;;5.10;96.30;;;;;;10433395;28;20037;-75
2021/12/27 11:23:46;;;;;;;23.05;7.80;;;5.10;96.30;;;;;;10437739;28;20376;-74
2021/12/27 11:28:46;;;;;;;24.77;8.02;;;5.10;96.40;;;;;;10423676;28;20396;-72
2021/12/27 11:34:33;;;;;;;23.55;9.02;;;5.20;96.50;;;;;;10432787;28;20033;-72
2021/12/27 11:40:10;;;;;;;22.20;9.30;;;5.30;97.20;;;;;;10437190;28;20091;-73
2021/12/27 11:45:11;;;;;;;24.73;7.65;;;5.40;96.60;;;;;;10422515;28;20040;-75
2021/12/27 11:50:14;;;;;;;22.85;7.82;;;5.40;96.50;;;;;;10442015;28;20071;-80
2021/12/27 11:55:21;;;;;;;23.95;8.70;;;5.40;96.40;;;;;;10407364;28;20076;-78
2021/12/27 12:00:23;;;;;;;26.10;8.68;;;5.40;96.60;;;;;;10439344;28;20049;-81
2021/12/27 12:06:03;;;;;;;23.20;8.63;;;5.80;96.60;;;;;;10450759;28;20047;-72
2021/12/27 12:11:10;;;;;;;20.70;8.98;;;5.40;96.60;;;;;;10391648;28;20056;-71
2021/12/27 12:16:17;;;;;;;26.30;8.27;;;5.50;96.70;;;;;;10389851;28;20096;-77
2021/12/27 12:21:32;;;;;;;21.13;8.73;;;5.50;96.80;;;;;;10385297;28;20042;-75
2021/12/27 12:26:50;;;;;;;27.42;8.82;;;5.60;96.90;;;;;;10398778;28;20033;-72
2021/12/27 12:32:00;;;;;;;26.13;8.70;;;5.80;97.40;;;;;;10398534;28;20217;-73
2021/12/27 12:37:04;;;;;;;27.35;8.23;;;5.90;96.80;;;;;;10409170;28;20050;-77
2021/12/27 12:42:14;;;;;;;24.05;8.10;;;5.80;96.60;;;;;;10392743;28;20583;-76
2021/12/27 12:47:15;;;;;;;23.45;9.25;;;5.90;96.90;;;;;;10411281;28;20025;-80
2021/12/27 12:52:17;;;;;;;24.27;8.25;;;5.90;97.20;;;;;;10395093;28;20508;-77
2021/12/27 12:57:23;;;;;;;28.67;9.30;;;6.00;97.40;;;;;;10379772;28;20054;-76
2021/12/27 13:02:30;;;;;;;27.90;8.77;;;6.00;97.20;;;;;;10382600;28;20038;-76
2021/12/27 13:07:34;;;;;;;24.45;8.30;;;6.00;97.60;;;;;;10398665;28;20068;-77
2021/12/27 13:12:36;;;;;;;27.35;9.15;;;6.00;97.40;;;;;;10430395;28;20044;-85
2021/12/27 13:17:37;;;;;;;22.88;9.45;;;6.00;97.40;;;;;;10424088;28;20052;-77
2021/12/27 13:22:44;;;;;;;21.85;8.60;;;6.30;97.50;;;;;;10431019;28;20391;-81
2021/12/27 13:27:45;;;;;;;23.75;9.02;;;5.90;97.40;;;;;;10445892;28;20434;-84
2021/12/27 13:32:48;;;;;;;23.17;8.43;;;5.90;97.40;;;;;;10437457;28;20038;-79
2021/12/27 13:37:48;;;;;;;23.38;9.02;;;5.90;97.50;;;;;;10450789;28;20041;-78
2021/12/27 13:42:49;;;;;;;30.13;10.05;;;5.90;97.50;;;;;;10431825;28;20037;-84
2021/12/27 13:47:52;;;;;;;22.88;9.15;;;5.90;97.50;;;;;;10416697;28;20044;-87
2021/12/27 13:52:54;;;;;;;21.77;8.35;;;6.10;97.60;;;;;;10405144;28;20029;-85
2021/12/27 13:57:54;;;;;;;22.90;8.70;;;5.90;97.50;;;;;;10404239;28;20049;-84
2021/12/27 14:02:58;;;;;;;23.35;8.73;;;5.90;97.50;;;;;;10388323;28;20030;-84
2021/12/27 14:08:10;;;;;;;25.88;9.27;;;5.90;97.50;;;;;;10442777;28;20053;-85
2021/12/27 14:13:10;;;;;;;20.08;8.15;;;5.80;97.60;;;;;;10425783;28;20033;-84
2021/12/27 14:18:14;;;;;;;22.90;9.32;;;6.30;97.70;;;;;;10425378;28;20044;-86
2021/12/27 14:23:15;;;;;;;20.75;9.07;;;6.00;97.60;;;;;;10440404;28;20442;-79
2021/12/27 14:28:16;;;;;;;17.48;7.75;;;5.80;97.60;;;;;;10448600;28;20044;-82
2021/12/27 14:33:17;;;;;;;22.50;8.40;;;6.00;97.70;;;;;;10417016;28;20087;-81
2021/12/27 14:38:23;;;;;;;18.88;7.53;;;6.30;97.70;;;;;;10448382;28;20049;-80
2021/12/27 14:43:26;;;;;;;19.55;8.50;;;5.80;97.60;;;;;;10434729;28;20068;-80
2021/12/27 14:48:27;;;;;;;17.88;7.40;;;5.80;97.60;;;;;;10447232;28;20037;-85
2021/12/27 14:53:28;;;;;;;19.55;7.50;;;5.80;97.60;;;;;;10404650;28;20046;-79
2021/12/27 14:58:29;;;;;;;18.90;7.95;;;5.80;97.60;;;;;;10398338;28;20571;-79
2021/12/27 15:03:30;;;;;;;15.82;6.80;;;5.80;97.60;;;;;;10420916;28;20029;-81
2021/12/27 15:08:32;;;;;;;22.23;8.05;;;5.80;97.60;;;;;;10431965;28;20677;-87
2021/12/27 15:13:34;;;;;;;17.95;7.70;;;5.80;97.60;;;;;;10417099;28;20036;-80
2021/12/27 15:18:35;;;;;;;17.88;8.02;;;5.80;97.60;;;;;;10410107;28;20133;-80
2021/12/27 15:23:36;;;;;;;17.20;8.07;;;6.40;97.80;;;;;;10423163;28;20064;-81
2021/12/27 15:29:04;;;;;;;18.77;7.88;;;5.80;97.60;;;;;;10415618;28;20103;-79
2021/12/27 15:34:05;;;;;;;18.30;6.68;;;5.80;97.70;;;;;;10404192;28;20435;-83
2021/12/27 15:39:06;;;;;;;17.35;6.53;;;6.20;97.70;;;;;;10426002;28;20083;-78
2021/12/27 15:44:27;;;;;;;18.15;6.75;;;5.80;97.80;;;;;;10435540;28;20041;-78
2021/12/27 15:49:28;;;;;;;15.18;7.05;;;5.80;97.80;;;;;;10431547;28;20067;-80
2021/12/27 15:54:41;;;;;;;14.82;7.00;;;5.80;97.70;;;;;;10436184;28;20063;-78
2021/12/27 15:59:42;;;;;;;18.10;7.60;;;5.80;97.80;;;;;;10422279;28;20045;-78
2021/12/27 16:04:42;;;;;;;17.45;7.05;;;5.70;97.70;;;;;;10430654;28;20082;-78
2021/12/27 16:09:43;;;;;;;13.23;6.75;;;5.80;97.70;;;;;;10408053;28;20100;-77
2021/12/27 16:14:44;;;;;;;13.75;6.25;;;5.80;97.70;;;;;;10417219;28;20934;-81
2021/12/27 16:19:45;;;;;;;12.40;6.10;;;5.80;97.80;;;;;;10408302;28;20072;-84
2021/12/27 16:24:45;;;;;;;12.90;6.05;;;5.80;97.80;;;;;;10435786;28;20290;-78
2021/12/27 16:29:46;;;;;;;12.50;6.45;;;5.80;97.80;;;;;;10438675;28;20041;-84
2021/12/27 16:34:47;;;;;;;12.20;6.25;;;5.80;97.80;;;;;;10435518;28;20719;-83
2021/12/27 16:39:48;;;;;;;11.50;5.97;;;5.80;97.80;;;;;;10444140;28;20136;-80
2021/12/27 16:44:49;;;;;;;12.85;5.95;;;5.80;97.80;;;;;;10430515;28;20029;-84
2021/12/27 16:49:50;;;;;;;14.05;5.70;;;5.90;97.90;;;;;;10430845;28;20048;-80
2021/12/27 16:54:51;;;;;;;12.35;5.90;;;5.80;97.80;;;;;;10426470;28;20037;-86
2021/12/27 16:59:52;;;;;;;12.13;5.88;;;5.80;97.80;;;;;;10439525;28;20550;-77
2021/12/27 17:04:53;;;;;;;14.68;6.57;;;5.80;97.90;;;;;;10443228;28;20072;-81
2021/12/27 17:09:55;;;;;;;11.50;5.75;;;5.80;97.90;;;;;;10442798;28;20045;-80
2021/12/27 17:14:56;;;;;;;12.30;5.93;;;5.80;97.90;;;;;;10439426;28;20040;-81
2021/12/27 17:19:57;;;;;;;11.13;6.05;;;5.80;97.90;;;;;;10424613;28;20041;-80
2021/12/27 17:24:59;;;;;;;11.48;5.65;;;5.80;97.90;;;;;;10440400;28;20441;-78
2021/12/27 17:30:01;;;;;;;11.50;5.43;;;5.80;97.90;;;;;;10436441;28;20079;-78
2021/12/27 17:35:04;;;;;;;13.32;5.55;;;5.90;97.90;;;;;;10441589;28;20034;-84
2021/12/27 17:40:07;;;;;;;12.10;5.38;;;5.80;97.90;;;;;;10441955;28;20414;-79
2021/12/27 17:45:11;;;;;;;11.02;5.40;;;5.80;97.90;;;;;;10404821;28;20510;-75
2021/12/27 17:50:14;;;;;;;9.07;5.32;;;5.80;97.90;;;;;;10432747;28;20041;-76
2021/12/27 17:55:15;;;;;;;13.85;5.70;;;5.50;97.80;;;;;;10437974;28;20037;-75
2021/12/27 18:00:17;;;;;;;10.70;5.70;;;5.80;97.90;;;;;;10437788;28;20059;-77
2021/12/27 18:05:19;;;;;;;13.55;5.97;;;5.80;97.90;;;;;;10444055;28;20037;-75
2021/12/27 18:10:20;;;;;;;11.18;5.70;;;5.80;97.90;;;;;;10429151;28;20053;-75
2021/12/27 18:16:01;;;;;;;12.02;5.55;;;5.80;97.90;;;;;;10446297;28;20458;-76
2021/12/27 18:22:01;;;;;;;9.40;4.68;;;5.80;98.00;;;;;;10437329;28;20041;-77
2021/12/27 18:28:02;;;;;;;13.60;6.10;;;5.80;98.00;;;;;;10445134;28;20487;-77
2021/12/27 18:34:02;;;;;;;9.57;4.65;;;5.80;98.00;;;;;;10439954;28;20480;-78
2021/12/27 18:40:03;;;;;;;8.82;4.75;;;5.80;98.00;;;;;;10443436;28;20076;-85
2021/12/27 18:46:03;;;;;;;9.25;5.03;;;6.00;98.10;;;;;;10446303;28;20501;-84
2021/12/27 18:52:04;;;;;;;12.15;5.22;;;6.00;98.20;;;;;;10435564;28;20556;-77
2021/12/27 18:58:04;;;;;;;9.80;4.63;;;6.00;98.10;;;;;;10439225;28;20442;-85
2021/12/27 19:04:05;;;;;;;9.57;5.47;;;6.10;98.30;;;;;;10441439;28;20349;-79
2021/12/27 19:10:05;;;;;;;8.60;4.57;;;6.00;98.20;;;;;;10442736;28;20055;-76
2021/12/27 19:16:10;;;;;;;7.15;3.85;;;6.00;98.20;;;;;;10442736;28;20124;-75
2021/12/27 19:22:06;;;;;;;8.80;5.05;;;6.00;98.20;;;;;;10429985;28;20423;-74
2021/12/27 19:28:07;;;;;;;7.63;5.00;;;6.00;99.00;;;;;;10437012;28;20072;-76
2021/12/27 19:34:07;;;;;;;7.93;4.63;;;6.10;98.40;;;;;;10433858;28;20060;-76
2021/12/27 19:40:08;;;;;;;8.75;4.25;;;6.10;98.40;;;;;;10443018;28;20447;-76
2021/12/27 22:09:00;;;;;;;12.38;5.15;;;6.40;99.50;;;;;;10418396;28;20053;-78
2021/12/27 22:14:00;;;;;;;9.73;5.50;;;6.40;99.00;;;;;;10420939;28;20108;-78
2021/12/27 22:19:01;;;;;;;9.40;5.05;;;6.40;99.00;;;;;;10408907;28;20495;-78
2021/12/27 22:24:02;;;;;;;9.45;5.50;;;6.40;99.10;;;;;;10426134;28;20399;-77
2021/12/27 22:29:03;;;;;;;11.02;5.32;;;7.50;99.40;;;;;;10446422;28;20095;-78
2021/12/27 22:34:48;;;;;;;11.18;5.13;;;6.50;99.20;;;;;;10428863;28;20602;-78
2021/12/27 22:40:48;;;;;;;9.40;5.18;;;6.50;99.60;;;;;;10443438;28;20048;-78
2021/12/27 22:46:08;;;;;;;8.63;5.20;;;6.50;99.60;;;;;;10435069;28;20033;-78
2021/12/27 22:51:09;;;;;;;8.95;5.00;;;6.50;99.30;;;;;;10447195;28;20446;-76
2021/12/27 22:56:09;;;;;;;9.85;5.18;;;6.50;99.30;;;;;;10429211;28;20033;-75
2021/12/27 23:01:11;;;;;;;8.88;5.20;;;6.50;99.30;;;;;;10428176;28;20044;-75
2021/12/27 23:06:12;;;;;;;10.82;5.72;;;6.50;99.30;;;;;;10446187;28;20135;-75
2021/12/27 23:11:13;;;;;;;9.85;6.40;;;6.60;99.40;;;;;;10445968;28;20665;-75
2021/12/27 23:16:14;;;;;;;9.00;5.32;;;6.60;99.50;;;;;;10425111;28;20132;-76
2021/12/27 23:21:15;;;;;;;10.32;5.82;;;6.60;99.50;;;;;;10427323;28;20469;-76
2021/12/27 23:26:16;;;;;;;13.32;6.15;;;6.60;99.50;;;;;;10442728;28;20125;-75
2021/12/27 23:31:18;;;;;;;11.23;6.05;;;6.70;99.60;;;;;;10441433;28;20033;-75
2021/12/27 23:36:20;;;;;;;10.23;5.70;;;6.70;99.60;;;;;;10422113;28;20045;-75
2021/12/27 23:41:21;;;;;;;11.07;6.50;;;6.70;99.60;;;;;;10444166;28;20098;-75
2021/12/27 23:46:22;;;;;;;12.00;6.90;;;6.70;99.70;;;;;;10427593;28;20507;-75
2021/12/27 23:51:23;;;;;;;11.60;6.25;;;6.70;99.70;;;;;;10432757;28;20175;-76
2021/12/27 23:56:24;;;;;;;14.05;6.57;;;6.70;99.70;;;;;;10445389;28;20431;-75
